Time;durP1;ratioP1;P1;durP2;ratioP2;P2;SDS_P1;SDS_P2;PMS_P1;PMS_P2;Temp;Humidity;BMP_temperature;BMP_pressure;BME280_temperature;BME280_humidity;BME280_pressure;Samples;Min_cycle;Max_cycle;Signal;HPM_P1;HPM_P2
2023/12/04 00:02:03;;;;;;;10;4.9;;;;;;;-3.27;78.19;;;;;
2023/12/04 00:13:03;;;;;;;10;4.9;;;;;;;-3.16;78.43;;;;;
2023/12/04 00:24:03;;;;;;;10;4.9;;;;;;;-2.99;78.68;;;;;
2023/12/04 00:34:03;;;;;;;8.2;4.9;;;;;;;-2.86;78.93;;;;;
2023/12/04 00:44:03;;;;;;;8.2;4.9;;;;;;;-2.85;78.86;;;;;
2023/12/04 00:55:03;;;;;;;8.2;4.9;;;;;;;-2.92;78.9;;;;;
2023/12/04 01:06:03;;;;;;;17.4;6.7;;;;;;;-3.14;80.27;;;;;
2023/12/04 01:17:03;;;;;;;17.4;6.7;;;;;;;-3.13;80.22;;;;;
2023/12/04 01:28:03;;;;;;;17.4;6.7;;;;;;;-3.27;79.88;;;;;
2023/12/04 01:38:03;;;;;;;7.4;4.7;;;;;;;-3.54;80.38;;;;;
2023/12/04 01:49:03;;;;;;;7.4;4.7;;;;;;;-3.74;80.65;;;;;
2023/12/04 02:00:03;;;;;;;10.4;6.1;;;;;;;-4.16;82.93;;;;;
2023/12/04 02:10:03;;;;;;;10.4;6.1;;;;;;;-4.23;83.65;;;;;
2023/12/04 02:20:05;;;;;;;10.4;6.1;;;;;;;-4.46;84.48;;;;;
2023/12/04 02:31:03;;;;;;;12;6;;;;;;;-4.47;83.82;;;;;
2023/12/04 02:41:03;;;;;;;12;6;;;;;;;-4.55;83.97;;;;;
2023/12/04 02:51:03;;;;;;;12;6;;;;;;;-4.29;84.61;;;;;
2023/12/04 03:02:03;;;;;;;8.7;4.9;;;;;;;-3.98;84.61;;;;;
2023/12/04 03:13:03;;;;;;;8.7;4.9;;;;;;;-3.73;84.21;;;;;
2023/12/04 03:24:03;;;;;;;8.7;4.9;;;;;;;-3.48;83.89;;;;;
2023/12/04 03:35:03;;;;;;;9.6;6;;;;;;;-3.25;83.59;;;;;
2023/12/04 03:45:03;;;;;;;9.6;6;;;;;;;-3.25;82.87;;;;;
2023/12/04 03:55:04;;;;;;;9.6;6;;;;;;;-3.33;82.49;;;;;
2023/12/04 04:06:03;;;;;;;11.6;6.4;;;;;;;-3.32;81.82;;;;;
2023/12/04 04:17:03;;;;;;;11.6;6.4;;;;;;;-3.29;81.81;;;;;
2023/12/04 04:27:03;;;;;;;11.6;6.4;;;;;;;-3.32;81.67;;;;;
2023/12/04 04:38:03;;;;;;;14.8;7.1;;;;;;;-3.57;81.21;;;;;
2023/12/04 04:48:03;;;;;;;14.8;7.1;;;;;;;-3.54;81.66;;;;;
2023/12/04 04:59:03;;;;;;;10;5.5;;;;;;;-3.5;81.45;;;;;
2023/12/04 05:09:04;;;;;;;10;5.5;;;;;;;-3.44;81.49;;;;;
2023/12/04 05:19:03;;;;;;;10;5.5;;;;;;;-3.39;81.32;;;;;
2023/12/04 05:30:03;;;;;;;11.3;5.8;;;;;;;-3.64;81.84;;;;;
2023/12/04 05:40:04;;;;;;;11.3;5.8;;;;;;;-3.58;81.79;;;;;
2023/12/04 05:51:03;;;;;;;11.3;5.8;;;;;;;-3.64;81.59;;;;;
2023/12/04 06:01:03;;;;;;;14.1;6.9;;;;;;;-3.56;81.7;;;;;
2023/12/04 06:11:03;;;;;;;14.1;6.9;;;;;;;-3.54;81.29;;;;;
2023/12/04 06:22:03;;;;;;;14.1;6.9;;;;;;;-3.57;80.38;;;;;
2023/12/04 06:33:03;;;;;;;9.3;5.9;;;;;;;-3.38;80.14;;;;;
2023/12/04 06:44:03;;;;;;;9.3;5.9;;;;;;;-3.29;79.52;;;;;
2023/12/04 06:54:03;;;;;;;9.3;5.9;;;;;;;-3.1;79.09;;;;;
2023/12/04 07:05:04;;;;;;;11.6;6.4;;;;;;;-2.77;78.43;;;;;
2023/12/04 07:16:03;;;;;;;11.6;6.4;;;;;;;-2.68;77.81;;;;;
2023/12/04 07:26:03;;;;;;;11.6;6.4;;;;;;;-2.37;76.72;;;;;
2023/12/04 07:37:03;;;;;;;8.9;5.1;;;;;;;-2.14;76.06;;;;;
2023/12/04 07:48:03;;;;;;;8.9;5.1;;;;;;;-1.47;75.45;;;;;
2023/12/04 07:59:03;;;;;;;9.4;5.3;;;;;;;-0.76;73.72;;;;;
2023/12/04 08:09:05;;;;;;;9.4;5.3;;;;;;;-0.45;71.3;;;;;
2023/12/04 08:20:04;;;;;;;9.4;5.3;;;;;;;-0.53;72.2;;;;;
2023/12/04 08:30:04;;;;;;;14.8;7.9;;;;;;;-0.49;71.26;;;;;
2023/12/04 08:40:03;;;;;;;14.8;7.9;;;;;;;-1.11;69.36;;;;;
2023/12/04 08:50:03;;;;;;;14.8;7.9;;;;;;;-1.18;69.3;;;;;
2023/12/04 09:01:03;;;;;;;13;6.6;;;;;;;-1.47;70.02;;;;;
2023/12/04 09:11:03;;;;;;;13;6.6;;;;;;;-1.39;70.03;;;;;
2023/12/04 09:21:04;;;;;;;13;6.6;;;;;;;-1.45;70.43;;;;;
2023/12/04 09:32:03;;;;;;;14.1;6.6;;;;;;;-1.15;69.86;;;;;
2023/12/04 09:43:03;;;;;;;14.1;6.6;;;;;;;-0.92;68.65;;;;;
2023/12/04 09:53:04;;;;;;;14.1;6.6;;;;;;;-0.53;67.5;;;;;
2023/12/04 10:04:04;;;;;;;10.1;5.8;;;;;;;-0.4;66.7;;;;;
2023/12/04 10:14:03;;;;;;;10.1;5.8;;;;;;;0.1;65.7;;;;;
2023/12/04 10:24:03;;;;;;;10.1;5.8;;;;;;;0.48;65.38;;;;;
2023/12/04 10:35:03;;;;;;;12.9;6.5;;;;;;;0.95;64.24;;;;;
2023/12/04 10:46:03;;;;;;;12.9;6.5;;;;;;;1.15;61.86;;;;;
2023/12/04 10:56:03;;;;;;;12.9;6.5;;;;;;;1.33;60.6;;;;;
2023/12/04 11:06:04;;;;;;;11.2;6;;;;;;;1.85;59.66;;;;;
2023/12/04 11:16:03;;;;;;;11.2;6;;;;;;;1.93;60.02;;;;;
2023/12/04 11:27:03;;;;;;;9.6;5.2;;;;;;;1.55;58.83;;;;;
2023/12/04 11:37:03;;;;;;;9.6;5.2;;;;;;;1.7;59.07;;;;;
2023/12/04 11:48:03;;;;;;;9.6;5.2;;;;;;;2.18;59.27;;;;;
2023/12/04 11:59:03;;;;;;;10.3;5.3;;;;;;;1.51;57.85;;;;;
2023/12/04 12:10:03;;;;;;;10.3;5.3;;;;;;;1.49;58.87;;;;;
2023/12/04 12:20:06;;;;;;;10.3;5.3;;;;;;;2.05;57.62;;;;;
2023/12/04 12:31:03;;;;;;;18.5;10.4;;;;;;;0.76;61.14;;;;;
2023/12/04 12:42:04;;;;;;;18.5;10.4;;;;;;;1.55;60.77;;;;;
2023/12/04 12:52:04;;;;;;;18.5;10.4;;;;;;;1.27;61.13;;;;;
2023/12/04 13:03:03;;;;;;;13.6;6.7;;;;;;;0.97;61.42;;;;;
2023/12/04 13:14:03;;;;;;;13.6;6.7;;;;;;;0.64;62.7;;;;;
2023/12/04 13:24:06;;;;;;;13.6;6.7;;;;;;;0.12;63.22;;;;;
2023/12/04 13:34:06;;;;;;;12.9;6.8;;;;;;;-0.41;64.69;;;;;
2023/12/04 13:44:03;;;;;;;12.9;6.8;;;;;;;-0.78;66.27;;;;;
2023/12/04 13:55:14;;;;;;;12.9;6.8;;;;;;;-1.09;67.7;;;;;
2023/12/04 14:06:04;;;;;;;18.2;9.4;;;;;;;-1.29;67.96;;;;;
2023/12/04 14:17:04;;;;;;;18.2;9.4;;;;;;;-1.68;69.87;;;;;
2023/12/04 14:27:05;;;;;;;23.4;12.6;;;;;;;-1.87;70.5;;;;;
2023/12/04 14:37:04;;;;;;;23.4;12.6;;;;;;;-2.22;71.7;;;;;
2023/12/04 14:48:07;;;;;;;23.4;12.6;;;;;;;-2.55;72.97;;;;;
2023/12/04 15:19:28;;;;;;;20;10.1;;;;;;;-3.52;75.71;;;;;
2023/12/04 15:30:04;;;;;;;26.1;15.7;;;;;;;-3.78;76.64;;;;;
2023/12/04 15:40:04;;;;;;;26.1;15.7;;;;;;;-4;78.25;;;;;
2023/12/04 15:50:05;;;;;;;26.1;15.7;;;;;;;-4.13;78.18;;;;;
2023/12/04 16:01:04;;;;;;;22.1;12.2;;;;;;;-4.18;78.52;;;;;
2023/12/04 16:11:03;;;;;;;22.1;12.2;;;;;;;-4.27;79.23;;;;;
2023/12/04 16:22:03;;;;;;;22.1;12.2;;;;;;;-4.25;79.46;;;;;
2023/12/04 16:33:03;;;;;;;24.8;15.4;;;;;;;-4.18;79.58;;;;;
2023/12/04 16:44:03;;;;;;;24.8;15.4;;;;;;;-4.05;79.66;;;;;
2023/12/04 16:54:03;;;;;;;24.8;15.4;;;;;;;-3.92;79.68;;;;;
2023/12/04 17:04:04;;;;;;;27.8;17.7;;;;;;;-4.03;79.85;;;;;
2023/12/04 17:14:03;;;;;;;27.8;17.7;;;;;;;-3.84;79.67;;;;;
2023/12/04 17:25:04;;;;;;;27.8;17.7;;;;;;;-3.92;79.65;;;;;
2023/12/04 17:36:04;;;;;;;40.2;24.9;;;;;;;-3.85;79.32;;;;;
2023/12/04 17:46:03;;;;;;;40.2;24.9;;;;;;;-3.93;79.19;;;;;
2023/12/04 17:57:03;;;;;;;51.7;29.1;;;;;;;-3.97;79.48;;;;;
2023/12/04 18:07:04;;;;;;;51.7;29.1;;;;;;;-3.97;79.36;;;;;
2023/12/04 18:18:05;;;;;;;51.7;29.1;;;;;;;-4.1;79.28;;;;;
2023/12/04 18:28:04;;;;;;;31.9;19.1;;;;;;;-4.07;79.9;;;;;
2023/12/04 18:39:03;;;;;;;31.9;19.1;;;;;;;-4.1;80.21;;;;;
2023/12/04 18:50:03;;;;;;;31.9;19.1;;;;;;;-4.07;80.05;;;;;
2023/12/04 19:01:03;;;;;;;28.4;17;;;;;;;-3.98;80.2;;;;;
2023/12/04 19:11:03;;;;;;;28.4;17;;;;;;;-3.97;80.19;;;;;
2023/12/04 19:21:03;;;;;;;28.4;17;;;;;;;-4.09;80.19;;;;;
2023/12/04 19:31:04;;;;;;;35;20.5;;;;;;;-4.41;81.46;;;;;
2023/12/04 19:42:03;;;;;;;35;20.5;;;;;;;-4.28;81.82;;;;;
2023/12/04 19:52:03;;;;;;;35;20.5;;;;;;;-4.29;81.21;;;;;
2023/12/04 20:02:04;;;;;;;29;17;;;;;;;-4.49;81.73;;;;;
2023/12/04 20:12:04;;;;;;;29;17;;;;;;;-4.46;81.83;;;;;
2023/12/04 20:23:03;;;;;;;29;17;;;;;;;-4.5;82.55;;;;;
2023/12/04 20:33:04;;;;;;;33.1;18.9;;;;;;;-4.41;82.27;;;;;
2023/12/04 20:44:05;;;;;;;33.1;18.9;;;;;;;-4.6;82.94;;;;;
2023/12/04 20:54:03;;;;;;;33.1;18.9;;;;;;;-4.3;82.03;;;;;
2023/12/04 21:05:03;;;;;;;65.1;33.8;;;;;;;-4.46;82.4;;;;;
2023/12/04 21:16:04;;;;;;;65.1;33.8;;;;;;;-4.78;82.9;;;;;
2023/12/04 21:27:04;;;;;;;39.9;23.3;;;;;;;-4.56;82.13;;;;;
2023/12/04 21:37:04;;;;;;;39.9;23.3;;;;;;;-4.64;82.32;;;;;
2023/12/04 21:48:04;;;;;;;39.9;23.3;;;;;;;-4.73;82.38;;;;;
2023/12/04 21:58:04;;;;;;;31.5;17.4;;;;;;;-4.84;82.54;;;;;
2023/12/04 22:08:04;;;;;;;31.5;17.4;;;;;;;-4.62;82.58;;;;;
2023/12/04 22:19:04;;;;;;;31.5;17.4;;;;;;;-4.7;82.65;;;;;
2023/12/04 22:30:05;;;;;;;33.4;19.4;;;;;;;-4.78;83.33;;;;;
2023/12/04 22:40:05;;;;;;;33.4;19.4;;;;;;;-4.66;83.58;;;;;
2023/12/04 22:51:04;;;;;;;33.4;19.4;;;;;;;-4.53;83.06;;;;;
2023/12/04 23:02:04;;;;;;;30.5;20.6;;;;;;;-4.37;83.1;;;;;
2023/12/04 23:13:04;;;;;;;30.5;20.6;;;;;;;-4.41;82.39;;;;;
2023/12/04 23:23:04;;;;;;;30.5;20.6;;;;;;;-4.6;82.51;;;;;
2023/12/04 23:33:04;;;;;;;39.7;22.4;;;;;;;-4.54;82.48;;;;;
2023/12/04 23:44:04;;;;;;;39.7;22.4;;;;;;;-4.64;82.84;;;;;
2023/12/04 23:55:04;;;;;;;40.6;24.4;;;;;;;-4.68;83.08;;;;;
